Time;durP1;ratioP1;P1;durP2;ratioP2;P2;SDS_P1;SDS_P2;PMS_P1;PMS_P2;Temp;Humidity;BMP_temperature;BMP_pressure;BME280_temperature;BME280_humidity;BME280_pressure;Samples;Min_cycle;Max_cycle;Signal;HPM_P1;HPM_P2
2022/05/19 00:01:46;;;;;;;;;;;12.10;99.90;;;;;;5053228;28;19935;-74
2022/05/19 00:04:13;;;;;;;;;;;12.10;99.90;;;;;;5053503;28;20346;-74
2022/05/19 00:06:38;;;;;;;;;;;12.10;99.90;;;;;;5054027;28;19955;-74
2022/05/19 00:09:04;;;;;;;;;;;12.00;99.90;;;;;;5053307;28;20331;-74
2022/05/19 00:11:32;;;;;;;;;;;12.00;99.90;;;;;;5052639;28;19917;-74
2022/05/19 00:13:57;;;;;;;;;;;12.00;99.90;;;;;;5048926;28;19920;-74
2022/05/19 00:16:23;;;;;;;;;;;12.00;99.90;;;;;;5053140;28;19909;-74
2022/05/19 00:18:48;;;;;;;;;;;11.90;99.90;;;;;;5053721;28;19919;-74
2022/05/19 00:21:14;;;;;;;;;;;11.80;99.90;;;;;;5053067;28;20340;-74
2022/05/19 00:23:39;;;;;;;;;;;11.80;99.90;;;;;;5052315;28;19908;-74
2022/05/19 00:26:05;;;;;;;;;;;11.70;99.90;;;;;;5052712;28;19909;-73
2022/05/19 00:28:30;;;;;;;;;;;11.70;99.90;;;;;;5052850;28;19909;-73
2022/05/19 00:30:56;;;;;;;;;;;11.70;99.90;;;;;;5052980;28;19913;-74
2022/05/19 00:33:21;;;;;;;;;;;11.60;99.90;;;;;;5051938;28;19908;-74
2022/05/19 00:35:47;;;;;;;;;;;11.50;99.90;;;;;;5052970;28;19913;-74
2022/05/19 00:38:13;;;;;;;;;;;11.60;99.90;;;;;;5052499;28;19913;-74
2022/05/19 00:40:38;;;;;;;;;;;11.60;99.90;;;;;;5052490;28;19909;-74
2022/05/19 00:43:04;;;;;;;;;;;11.50;99.90;;;;;;5056164;28;20281;-74
2022/05/19 00:45:56;;;;;;;;;;;11.50;99.90;;;;;;5058748;28;19955;-74
2022/05/19 00:48:23;;;;;;;;;;;11.50;99.90;;;;;;5049109;28;19909;-75
2022/05/19 00:51:01;;;;;;;;;;;11.60;99.90;;;;;;5051971;28;19913;-74
2022/05/19 00:53:40;;;;;;;;;;;11.50;99.90;;;;;;5051791;28;19916;-74
2022/05/19 00:56:12;;;;;;;;;;;11.30;99.90;;;;;;5052673;28;19912;-74
2022/05/19 00:58:44;;;;;;;;;;;11.20;99.90;;;;;;5051270;28;19912;-74
2022/05/19 01:01:10;;;;;;;;;;;11.20;99.90;;;;;;5052468;28;19916;-74
2022/05/19 01:03:42;;;;;;;;;;;11.20;99.90;;;;;;5051923;28;19912;-74
2022/05/19 01:06:17;;;;;;;;;;;11.10;99.90;;;;;;5052194;28;19966;-74
2022/05/19 01:08:47;;;;;;;;;;;11.10;99.90;;;;;;5052503;28;19909;-74
2022/05/19 01:11:14;;;;;;;;;;;11.10;99.90;;;;;;5052121;28;19909;-74
2022/05/19 01:13:39;;;;;;;;;;;10.90;99.90;;;;;;5051606;28;20060;-74
2022/05/19 01:16:05;;;;;;;;;;;10.80;99.90;;;;;;5052238;28;19909;-74
2022/05/19 01:18:31;;;;;;;;;;;10.90;99.90;;;;;;5051603;28;19919;-74
2022/05/19 01:20:58;;;;;;;;;;;11.10;99.90;;;;;;5052164;28;19909;-74
2022/05/19 01:23:26;;;;;;;;;;;11.10;99.90;;;;;;5051155;28;19928;-74
2022/05/19 01:26:01;;;;;;;;;;;11.00;99.90;;;;;;5051775;28;19962;-74
2022/05/19 01:28:27;;;;;;;;;;;11.00;99.90;;;;;;5051880;28;19924;-74
2022/05/19 01:30:53;;;;;;;;;;;11.10;99.90;;;;;;5051935;28;19916;-74
2022/05/19 01:33:18;;;;;;;;;;;11.00;99.90;;;;;;5051040;28;19909;-74
2022/05/19 01:35:44;;;;;;;;;;;11.00;99.90;;;;;;5051808;28;19913;-74
2022/05/19 01:38:25;;;;;;;;;;;11.00;99.90;;;;;;5052196;28;20054;-74
2022/05/19 01:41:00;;;;;;;;;;;10.90;99.90;;;;;;5051414;28;19909;-74
2022/05/19 01:43:30;;;;;;;;;;;10.70;99.90;;;;;;5050423;28;20249;-74
2022/05/19 01:45:55;;;;;;;;;;;10.80;99.90;;;;;;5051587;28;19913;-74
2022/05/19 01:48:40;;;;;;;;;;;10.70;99.90;;;;;;5051502;28;19908;-74
2022/05/19 01:51:06;;;;;;;;;;;10.50;99.90;;;;;;5051571;28;20006;-74
2022/05/19 01:53:58;;;;;;;;;;;10.60;99.90;;;;;;5050480;28;20394;-74
2022/05/19 01:56:42;;;;;;;;;;;10.60;99.90;;;;;;5051450;28;19909;-74
2022/05/19 01:59:19;;;;;;;;;;;10.60;99.90;;;;;;5051528;28;20328;-74
2022/05/19 02:01:48;;;;;;;;;;;10.50;99.90;;;;;;5051087;28;19998;-74
2022/05/19 02:04:22;;;;;;;;;;;10.50;99.90;;;;;;5050840;28;20053;-74
2022/05/19 02:06:55;;;;;;;;;;;10.40;99.90;;;;;;5051505;28;19916;-74
2022/05/19 02:09:53;;;;;;;;;;;10.40;99.90;;;;;;5051346;28;19923;-74
2022/05/19 02:12:19;;;;;;;;;;;10.30;99.90;;;;;;5047467;28;20257;-74
2022/05/19 02:14:48;;;;;;;;;;;10.40;99.90;;;;;;5054361;28;19944;-74
2022/05/19 02:17:15;;;;;;;;;;;10.50;99.90;;;;;;5052587;28;19940;-74
2022/05/19 02:19:42;;;;;;;;;;;10.30;99.90;;;;;;5048969;28;20415;-74
2022/05/19 02:22:09;;;;;;;;;;;10.30;99.90;;;;;;5055437;28;19908;-74
2022/05/19 02:24:37;;;;;;;;;;;10.30;99.90;;;;;;5055030;28;20378;-74
2022/05/19 02:27:21;;;;;;;;;;;10.30;99.90;;;;;;5054857;28;19909;-74
2022/05/19 02:29:46;;;;;;;;;;;10.30;99.90;;;;;;5051058;28;19916;-75
2022/05/19 02:32:12;;;;;;;;;;;10.30;99.90;;;;;;5054853;28;19909;-75
2022/05/19 02:34:37;;;;;;;;;;;10.30;99.90;;;;;;5054675;28;19908;-75
2022/05/19 02:37:05;;;;;;;;;;;10.40;99.90;;;;;;5055065;28;19909;-75
2022/05/19 02:39:30;;;;;;;;;;;10.40;99.90;;;;;;5054922;28;19913;-74
2022/05/19 02:41:57;;;;;;;;;;;10.50;99.90;;;;;;5054116;28;19915;-74
2022/05/19 02:44:22;;;;;;;;;;;10.40;99.90;;;;;;5054110;28;20381;-75
2022/05/19 02:46:48;;;;;;;;;;;10.40;99.90;;;;;;5055155;28;19913;-74
2022/05/19 02:49:13;;;;;;;;;;;10.40;99.90;;;;;;5054705;28;19921;-74
2022/05/19 02:51:39;;;;;;;;;;;10.20;99.90;;;;;;5054104;28;20350;-74
2022/05/19 02:54:04;;;;;;;;;;;10.10;99.90;;;;;;5053452;28;19909;-74
2022/05/19 02:56:30;;;;;;;;;;;10.10;99.90;;;;;;5054291;28;19908;-74
2022/05/19 02:58:55;;;;;;;;;;;10.10;99.90;;;;;;5054687;28;20408;-73
2022/05/19 03:01:21;;;;;;;;;;;10.20;99.90;;;;;;5054000;28;19909;-74
2022/05/19 03:03:48;;;;;;;;;;;10.30;99.90;;;;;;5054011;28;19912;-74
2022/05/19 03:06:13;;;;;;;;;;;10.30;99.90;;;;;;5054554;28;20400;-74
2022/05/19 03:08:39;;;;;;;;;;;10.20;99.90;;;;;;5055129;28;19909;-74
2022/05/19 03:11:04;;;;;;;;;;;10.10;99.90;;;;;;5054046;28;19917;-74
2022/05/19 03:13:30;;;;;;;;;;;10.00;99.90;;;;;;5053105;28;19909;-74
2022/05/19 03:15:55;;;;;;;;;;;10.00;99.90;;;;;;5054332;28;19913;-74
2022/05/19 03:18:21;;;;;;;;;;;10.10;99.90;;;;;;5054129;28;20008;-74
2022/05/19 03:20:47;;;;;;;;;;;10.00;99.90;;;;;;5054263;28;19979;-74
2022/05/19 03:23:13;;;;;;;;;;;9.90;99.90;;;;;;5053263;28;19909;-74
2022/05/19 03:25:39;;;;;;;;;;;9.90;99.90;;;;;;5054182;28;19909;-74
2022/05/19 03:28:04;;;;;;;;;;;9.80;99.90;;;;;;5053974;28;20398;-74
2022/05/19 03:30:30;;;;;;;;;;;9.90;99.90;;;;;;5054082;28;19940;-74
2022/05/19 03:32:55;;;;;;;;;;;9.90;99.90;;;;;;5053382;28;19913;-74
2022/05/19 03:35:21;;;;;;;;;;;9.90;99.90;;;;;;5053508;28;20502;-74
2022/05/19 03:37:47;;;;;;;;;;;9.80;99.90;;;;;;5054630;28;19979;-74
2022/05/19 03:40:14;;;;;;;;;;;9.80;99.90;;;;;;5054677;28;19916;-73
2022/05/19 03:42:39;;;;;;;;;;;9.80;99.90;;;;;;5053491;28;19909;-74
2022/05/19 03:45:05;;;;;;;;;;;9.80;99.90;;;;;;5057722;28;20019;-73
2022/05/19 03:47:31;;;;;;;;;;;9.80;99.90;;;;;;5054270;28;19923;-74
2022/05/19 03:49:57;;;;;;;;;;;9.80;99.90;;;;;;5054399;28;19920;-73
2022/05/19 03:52:22;;;;;;;;;;;9.80;99.90;;;;;;5054076;28;20383;-73
2022/05/19 03:54:47;;;;;;;;;;;9.90;99.90;;;;;;5053672;28;19924;-73
2022/05/19 03:57:13;;;;;;;;;;;10.10;99.90;;;;;;5053897;28;20000;-72
2022/05/19 03:59:39;;;;;;;;;;;10.10;99.90;;;;;;5053789;28;19917;-73
2022/05/19 04:02:04;;;;;;;;;;;10.10;99.90;;;;;;5053342;28;19962;-73
2022/05/19 04:04:30;;;;;;;;;;;10.10;99.90;;;;;;5053156;28;19908;-73
2022/05/19 04:06:55;;;;;;;;;;;10.00;99.90;;;;;;5055560;28;19924;-74
2022/05/19 04:09:21;;;;;;;;;;;10.10;99.90;;;;;;5053699;28;20346;-73
2022/05/19 04:11:46;;;;;;;;;;;10.10;99.90;;;;;;5053061;28;19999;-73
2022/05/19 04:14:12;;;;;;;;;;;10.10;99.90;;;;;;5060064;28;19912;-72
2022/05/19 04:16:38;;;;;;;;;;;10.20;99.90;;;;;;5054756;28;20354;-72
2022/05/19 04:19:04;;;;;;;;;;;10.30;99.90;;;;;;5053786;28;19913;-73
2022/05/19 04:21:30;;;;;;;;;;;10.40;99.90;;;;;;5056086;28;20274;-72
2022/05/19 04:23:56;;;;;;;;;;;10.40;99.90;;;;;;5053342;28;19959;-73
2022/05/19 04:26:22;;;;;;;;;;;10.40;99.90;;;;;;5054722;28;19913;-72
2022/05/19 04:28:47;;;;;;;;;;;10.40;99.90;;;;;;5054331;28;20164;-72
2022/05/19 04:31:13;;;;;;;;;;;10.50;99.90;;;;;;5055688;28;19909;-73
2022/05/19 04:33:39;;;;;;;;;;;10.60;99.90;;;;;;5053988;28;19916;-72
2022/05/19 04:36:04;;;;;;;;;;;10.70;99.90;;;;;;5054634;28;19909;-73
2022/05/19 04:38:30;;;;;;;;;;;10.80;99.90;;;;;;5054196;28;20019;-73
2022/05/19 04:40:59;;;;;;;;;;;11.00;99.90;;;;;;5051729;28;19919;-73
2022/05/19 04:43:24;;;;;;;;;;;11.10;99.90;;;;;;5051973;28;19947;-74
2022/05/19 04:45:51;;;;;;;;;;;11.20;99.90;;;;;;5055732;28;19913;-73
2022/05/19 04:48:17;;;;;;;;;;;11.20;99.90;;;;;;5053087;28;19924;-73
2022/05/19 04:50:43;;;;;;;;;;;11.40;99.90;;;;;;5053377;28;20340;-73
2022/05/19 04:53:08;;;;;;;;;;;11.50;99.90;;;;;;5052058;28;19913;-74
2022/05/19 04:55:35;;;;;;;;;;;11.50;99.90;;;;;;5052624;28;20373;-74
2022/05/19 04:58:00;;;;;;;;;;;11.70;99.90;;;;;;5053980;28;19909;-73
2022/05/19 05:00:26;;;;;;;;;;;11.90;99.90;;;;;;5060026;28;19912;-74
2022/05/19 05:02:51;;;;;;;;;;;12.00;99.90;;;;;;5068094;28;19915;-73
2022/05/19 05:05:17;;;;;;;;;;;12.00;99.90;;;;;;5072359;28;20254;-74
2022/05/19 05:07:42;;;;;;;;;;;12.10;99.90;;;;;;5072623;28;19915;-73
2022/05/19 05:10:08;;;;;;;;;;;12.30;99.90;;;;;;5072052;28;20376;-74
2022/05/19 05:12:34;;;;;;;;;;;12.50;99.90;;;;;;5061181;28;20362;-73
2022/05/19 05:14:59;;;;;;;;;;;12.60;99.90;;;;;;5056330;28;19908;-73
2022/05/19 05:17:25;;;;;;;;;;;12.70;99.90;;;;;;5053131;28;19980;-73
2022/05/19 05:19:50;;;;;;;;;;;12.90;99.90;;;;;;5052439;28;19916;-73
2022/05/19 05:22:16;;;;;;;;;;;12.90;99.90;;;;;;5065165;28;19912;-73
2022/05/19 05:24:41;;;;;;;;;;;13.10;99.90;;;;;;5071244;28;19969;-73
2022/05/19 05:27:07;;;;;;;;;;;13.40;99.90;;;;;;5071308;28;20480;-73
2022/05/19 05:29:33;;;;;;;;;;;13.60;99.90;;;;;;5072072;28;19947;-73
2022/05/19 05:31:59;;;;;;;;;;;13.80;99.90;;;;;;5071861;28;19944;-73
2022/05/19 05:34:24;;;;;;;;;;;14.40;99.90;;;;;;5071511;28;19908;-74
2022/05/19 05:36:50;;;;;;;;;;;14.40;99.90;;;;;;5071128;28;19958;-74
2022/05/19 05:39:15;;;;;;;;;;;14.40;99.90;;;;;;5070998;28;19955;-74
2022/05/19 05:41:41;;;;;;;;;;;15.10;99.90;;;;;;5067525;28;19940;-74
2022/05/19 05:44:07;;;;;;;;;;;16.30;99.90;;;;;;5051984;28;19908;-73
2022/05/19 05:46:33;;;;;;;;;;;17.10;99.90;;;;;;5052668;28;19962;-73
2022/05/19 05:48:58;;;;;;;;;;;16.60;99.90;;;;;;5052562;28;19999;-74
2022/05/19 05:51:24;;;;;;;;;;;15.80;99.90;;;;;;5050997;28;20377;-72
2022/05/19 05:53:49;;;;;;;;;;;15.50;99.90;;;;;;5052199;28;19909;-73
2022/05/19 05:56:17;;;;;;;;;;;15.80;99.90;;;;;;5053008;28;19909;-73
2022/05/19 05:58:43;;;;;;;;;;;16.00;99.90;;;;;;5052337;28;19913;-73
2022/05/19 06:01:09;;;;;;;;;;;15.90;99.90;;;;;;5052160;28;20358;-73
2022/05/19 06:03:35;;;;;;;;;;;16.00;99.90;;;;;;5050193;28;20309;-73
2022/05/19 06:06:01;;;;;;;;;;;16.00;99.90;;;;;;5051120;28;19958;-73
2022/05/19 06:08:27;;;;;;;;;;;16.30;99.90;;;;;;5052363;28;19919;-73
2022/05/19 06:10:52;;;;;;;;;;;16.50;99.90;;;;;;5052560;28;20278;-73
2022/05/19 06:13:18;;;;;;;;;;;16.60;99.90;;;;;;5056093;28;19912;-73
2022/05/19 06:15:44;;;;;;;;;;;17.30;99.90;;;;;;5054437;28;20374;-73
2022/05/19 06:18:10;;;;;;;;;;;18.70;99.90;;;;;;5052315;28;19948;-72
2022/05/19 06:20:35;;;;;;;;;;;19.70;99.90;;;;;;5051161;28;20361;-73
2022/05/19 06:23:03;;;;;;;;;;;19.90;99.90;;;;;;5050681;28;20015;-73
2022/05/19 06:25:29;;;;;;;;;;;18.90;99.90;;;;;;5050572;28;19971;-73
2022/05/19 06:27:55;;;;;;;;;;;18.20;99.90;;;;;;5050887;28;20003;-73
2022/05/19 06:30:22;;;;;;;;;;;17.70;99.90;;;;;;5051283;28;19997;-73
2022/05/19 06:32:48;;;;;;;;;;;17.50;99.90;;;;;;5050516;28;19909;-72
2022/05/19 06:35:14;;;;;;;;;;;17.60;99.90;;;;;;5050355;28;20358;-72
2022/05/19 06:37:40;;;;;;;;;;;17.70;99.90;;;;;;5051347;28;20290;-73
2022/05/19 06:40:06;;;;;;;;;;;18.00;99.90;;;;;;5051172;28;19937;-73
2022/05/19 06:42:32;;;;;;;;;;;18.00;99.90;;;;;;5048927;28;20318;-73
2022/05/19 06:44:57;;;;;;;;;;;18.00;99.90;;;;;;5061801;28;19913;-72
2022/05/19 06:47:23;;;;;;;;;;;18.50;99.90;;;;;;5044633;28;19999;-72
2022/05/19 06:49:51;;;;;;;;;;;19.90;99.90;;;;;;5045733;28;20007;-73
2022/05/19 06:52:23;;;;;;;;;;;20.60;99.90;;;;;;5061657;28;20379;-73
2022/05/19 06:54:51;;;;;;;;;;;21.70;96.40;;;;;;5050263;28;20444;-73
2022/05/19 06:57:17;;;;;;;;;;;22.00;94.70;;;;;;5046954;28;20285;-73
2022/05/19 06:59:43;;;;;;;;;;;22.50;94.50;;;;;;5043804;28;19917;-73
2022/05/19 07:02:09;;;;;;;;;;;22.80;94.10;;;;;;5057836;28;19955;-73
2022/05/19 07:04:35;;;;;;;;;;;23.10;92.80;;;;;;5049414;28;19909;-73
2022/05/19 07:07:02;;;;;;;;;;;23.10;90.60;;;;;;5060886;28;19963;-73
2022/05/19 07:09:27;;;;;;;;;;;22.80;91.80;;;;;;5054269;28;19908;-73
2022/05/19 07:11:53;;;;;;;;;;;23.10;90.90;;;;;;5053407;28;20380;-72
2022/05/19 07:14:19;;;;;;;;;;;23.50;89.40;;;;;;5053395;28;19920;-73
2022/05/19 07:16:48;;;;;;;;;;;23.50;90.00;;;;;;5053622;28;19909;-72
2022/05/19 07:21:57;;;;;;;;;;;23.30;90.00;;;;;;5053470;28;20424;-73
2022/05/19 07:24:24;;;;;;;;;;;23.60;89.20;;;;;;5054053;28;19960;-73
2022/05/19 07:26:51;;;;;;;;;;;23.50;90.00;;;;;;5054485;28;19913;-73
2022/05/19 07:29:18;;;;;;;;;;;24.30;87.70;;;;;;5054734;28;19965;-72
2022/05/19 07:31:43;;;;;;;;;;;24.90;84.20;;;;;;5054555;28;19909;-73
2022/05/19 07:34:10;;;;;;;;;;;24.20;83.50;;;;;;5053893;28;19915;-73
2022/05/19 07:36:36;;;;;;;;;;;24.80;85.80;;;;;;5054332;28;20062;-73
2022/05/19 07:39:02;;;;;;;;;;;25.30;89.10;;;;;;5054110;28;20003;-73
2022/05/19 07:41:29;;;;;;;;;;;25.30;83.40;;;;;;5053543;28;20335;-73
2022/05/19 07:43:55;;;;;;;;;;;24.90;83.50;;;;;;5056085;28;19908;-74
2022/05/19 07:46:21;;;;;;;;;;;25.10;82.70;;;;;;5047089;28;19909;-74
2022/05/19 07:48:47;;;;;;;;;;;26.30;81.30;;;;;;5053630;28;19919;-73
2022/05/19 07:51:13;;;;;;;;;;;26.60;86.80;;;;;;5054546;28;19909;-74
2022/05/19 07:53:38;;;;;;;;;;;27.50;81.00;;;;;;5053262;28;19909;-74
2022/05/19 07:56:04;;;;;;;;;;;28.20;77.30;;;;;;5054701;28;19915;-73
2022/05/19 07:58:30;;;;;;;;;;;28.10;75.20;;;;;;5052940;28;20011;-73
2022/05/19 08:00:56;;;;;;;;;;;28.60;77.80;;;;;;5060779;28;19923;-74
2022/05/19 08:03:23;;;;;;;;;;;28.70;73.90;;;;;;5053875;28;19963;-74
2022/05/19 08:05:49;;;;;;;;;;;28.20;74.80;;;;;;5053791;28;19927;-74
2022/05/19 08:08:14;;;;;;;;;;;28.60;79.60;;;;;;5054539;28;19996;-74
2022/05/19 08:10:40;;;;;;;;;;;28.50;71.30;;;;;;5054830;28;20354;-74
2022/05/19 08:15:49;;;;;;;;;;;28.10;74.90;;;;;;5060164;28;19916;-74
2022/05/19 08:18:16;;;;;;;;;;;28.80;75.30;;;;;;5055175;28;19909;-73
2022/05/19 08:20:44;;;;;;;;;;;28.90;72.90;;;;;;5063074;28;19969;-74
2022/05/19 08:23:18;;;;;;;;;;;29.30;73.20;;;;;;5060123;28;19909;-74
2022/05/19 08:25:44;;;;;;;;;;;29.60;70.80;;;;;;5054832;28;19908;-74
2022/05/19 08:28:10;;;;;;;;;;;29.80;73.60;;;;;;5054413;28;19919;-74
2022/05/19 08:30:36;;;;;;;;;;;30.20;66.50;;;;;;5054449;28;20060;-74
2022/05/19 08:33:05;;;;;;;;;;;28.70;68.10;;;;;;5072230;28;20504;-74
2022/05/19 08:35:30;;;;;;;;;;;28.80;72.80;;;;;;5048980;28;20484;-75
2022/05/19 08:37:56;;;;;;;;;;;30.20;73.70;;;;;;5054824;28;19916;-74
2022/05/19 08:40:22;;;;;;;;;;;30.50;68.70;;;;;;5054710;28;20185;-74
2022/05/19 08:42:51;;;;;;;;;;;30.80;68.90;;;;;;5055015;28;19934;-74
2022/05/19 08:45:19;;;;;;;;;;;30.60;68.90;;;;;;5049604;28;19912;-75
2022/05/19 08:47:46;;;;;;;;;;;30.80;70.60;;;;;;5048323;28;19955;-74
2022/05/19 08:50:27;;;;;;;;;;;31.20;71.30;;;;;;5048157;28;19916;-75
2022/05/19 08:52:54;;;;;;;;;;;31.60;69.30;;;;;;5049817;28;19918;-74
2022/05/19 08:55:19;;;;;;;;;;;31.50;68.50;;;;;;5053000;28;19943;-74
2022/05/19 08:58:03;;;;;;;;;;;31.80;66.20;;;;;;5052977;28;19948;-74
2022/05/19 09:00:36;;;;;;;;;;;31.50;65.40;;;;;;5049665;28;20400;-74
2022/05/19 09:03:09;;;;;;;;;;;31.70;70.30;;;;;;5050970;28;19909;-74
2022/05/19 09:05:46;;;;;;;;;;;31.80;64.70;;;;;;5070989;28;20320;-74
2022/05/19 09:08:14;;;;;;;;;;;32.00;68.10;;;;;;5071054;28;19991;-74
2022/05/19 09:10:42;;;;;;;;;;;31.50;68.50;;;;;;5051810;28;19908;-74
2022/05/19 09:13:17;;;;;;;;;;;31.50;70.70;;;;;;5063739;28;19915;-74
2022/05/19 09:15:45;;;;;;;;;;;31.50;67.30;;;;;;5051948;28;20011;-74
2022/05/19 09:18:12;;;;;;;;;;;30.90;74.50;;;;;;5051923;28;20377;-74
2022/05/19 09:20:41;;;;;;;;;;;31.20;71.40;;;;;;5050997;28;20286;-74
2022/05/19 09:23:06;;;;;;;;;;;31.10;70.90;;;;;;5052622;28;20281;-74
2022/05/19 09:25:33;;;;;;;;;;;31.20;65.80;;;;;;5052286;28;19916;-75
2022/05/19 09:27:58;;;;;;;;;;;31.80;71.60;;;;;;5051690;28;19909;-74
2022/05/19 09:30:34;;;;;;;;;;;31.10;69.30;;;;;;5051987;28;19916;-74
2022/05/19 09:33:04;;;;;;;;;;;31.10;70.70;;;;;;5053403;28;19920;-73
2022/05/19 09:35:30;;;;;;;;;;;31.10;74.50;;;;;;5056264;28;19947;-74
2022/05/19 09:38:17;;;;;;;;;;;31.30;71.50;;;;;;5053352;28;19909;-74
2022/05/19 09:40:47;;;;;;;;;;;31.60;68.40;;;;;;5070867;28;19912;-74
2022/05/19 09:43:20;;;;;;;;;;;31.50;71.10;;;;;;5056954;28;20477;-73
2022/05/19 09:45:50;;;;;;;;;;;31.50;71.80;;;;;;5052579;28;20461;-73
2022/05/19 09:48:22;;;;;;;;;;;31.30;72.50;;;;;;5064271;28;20012;-74
2022/05/19 09:50:50;;;;;;;;;;;31.30;72.40;;;;;;5032294;28;20382;-74
2022/05/19 09:53:21;;;;;;;;;;;31.70;67.20;;;;;;5057163;28;20003;-74
2022/05/19 09:55:53;;;;;;;;;;;31.80;68.90;;;;;;5058460;28;19920;-73
2022/05/19 09:58:19;;;;;;;;;;;31.70;69.60;;;;;;5059159;28;20376;-74
2022/05/19 10:00:57;;;;;;;;;;;31.80;71.00;;;;;;5050009;28;19920;-74
2022/05/19 10:03:26;;;;;;;;;;;31.50;72.30;;;;;;5063100;28;20224;-75
2022/05/19 10:05:56;;;;;;;;;;;31.70;71.40;;;;;;5061303;28;20288;-73
2022/05/19 10:08:26;;;;;;;;;;;31.90;69.10;;;;;;5070705;28;19908;-74
2022/05/19 10:10:59;;;;;;;;;;;32.30;70.00;;;;;;5060957;28;19912;-74
2022/05/19 10:13:27;;;;;;;;;;;32.10;65.30;;;;;;5056143;28;19912;-74
2022/05/19 10:16:00;;;;;;;;;;;31.70;67.70;;;;;;5059832;28;19909;-73
2022/05/19 10:18:45;;;;;;;;;;;32.40;65.10;;;;;;5057314;28;19920;-73
2022/05/19 10:21:10;;;;;;;;;;;33.20;72.70;;;;;;5059618;28;20010;-73
2022/05/19 10:23:41;;;;;;;;;;;32.90;69.40;;;;;;5051571;28;19963;-74
2022/05/19 10:26:19;;;;;;;;;;;32.60;68.70;;;;;;5051421;28;20042;-75
2022/05/19 10:31:47;;;;;;;;;;;32.20;67.70;;;;;;5064502;28;19916;-74
2022/05/19 10:34:15;;;;;;;;;;;32.00;66.50;;;;;;5070281;28;19908;-74
2022/05/19 10:36:41;;;;;;;;;;;32.10;69.30;;;;;;5055852;28;19931;-74
2022/05/19 10:39:15;;;;;;;;;;;32.80;63.70;;;;;;5059860;28;20374;-74
2022/05/19 10:41:41;;;;;;;;;;;32.20;63.20;;;;;;5063680;28;19923;-74
2022/05/19 10:44:21;;;;;;;;;;;33.10;65.10;;;;;;5062680;28;19912;-74
2022/05/19 10:46:57;;;;;;;;;;;33.00;63.40;;;;;;5061706;28;19917;-75
2022/05/19 10:49:22;;;;;;;;;;;33.60;64.80;;;;;;5071949;28;19920;-74
2022/05/19 10:51:55;;;;;;;;;;;33.50;65.80;;;;;;5075572;28;20011;-74
2022/05/19 10:54:24;;;;;;;;;;;33.80;62.80;;;;;;5072048;28;20273;-74
2022/05/19 10:57:08;;;;;;;;;;;33.00;62.70;;;;;;5056928;28;19947;-74
2022/05/19 10:59:36;;;;;;;;;;;32.80;59.50;;;;;;5053280;28;20362;-75
2022/05/19 11:02:08;;;;;;;;;;;32.70;57.70;;;;;;5054857;28;19909;-75
2022/05/19 11:04:38;;;;;;;;;;;33.50;58.60;;;;;;5053645;28;21433;-74
2022/05/19 11:07:15;;;;;;;;;;;33.80;59.10;;;;;;5054866;28;19924;-74
2022/05/19 11:09:54;;;;;;;;;;;33.60;59.70;;;;;;5054652;28;19909;-74
2022/05/19 11:12:19;;;;;;;;;;;32.90;59.00;;;;;;5054296;28;19909;-75
2022/05/19 11:14:45;;;;;;;;;;;33.20;58.50;;;;;;5055257;28;19923;-75
2022/05/19 11:17:23;;;;;;;;;;;33.20;58.40;;;;;;5054810;28;19916;-75
2022/05/19 11:19:54;;;;;;;;;;;33.30;54.60;;;;;;5054963;28;19920;-76
2022/05/19 11:22:22;;;;;;;;;;;33.60;55.40;;;;;;5055109;28;20019;-74
2022/05/19 11:27:42;;;;;;;;;;;32.60;57.50;;;;;;5058333;28;19923;-74
2022/05/19 11:30:12;;;;;;;;;;;33.70;55.50;;;;;;5067821;28;20530;-74
2022/05/19 11:32:38;;;;;;;;;;;33.30;60.20;;;;;;5070919;28;19958;-74
2022/05/19 11:35:19;;;;;;;;;;;33.20;56.00;;;;;;5069283;28;19952;-74
2022/05/19 11:37:56;;;;;;;;;;;33.40;54.00;;;;;;5073760;28;19916;-74
2022/05/19 11:40:22;;;;;;;;;;;32.90;53.50;;;;;;5061380;28;19960;-74
2022/05/19 11:42:55;;;;;;;;;;;32.60;54.80;;;;;;5056596;28;19955;-74
2022/05/19 11:45:39;;;;;;;;;;;32.90;57.40;;;;;;5065154;28;19912;-75
2022/05/19 11:56:42;;;;;;;;;;;32.60;59.70;;;;;;5060152;28;19962;-74
2022/05/19 11:59:09;;;;;;;;;;;33.10;60.10;;;;;;5054083;28;20023;-74
2022/05/19 12:01:38;;;;;;;;;;;33.40;56.10;;;;;;5056316;28;19954;-74
2022/05/19 12:04:15;;;;;;;;;;;32.60;58.30;;;;;;5060525;28;19916;-74
2022/05/19 12:07:04;;;;;;;;;;;33.20;57.80;;;;;;5054228;28;19916;-74
2022/05/19 12:09:32;;;;;;;;;;;34.00;54.30;;;;;;5057250;28;19944;-74
2022/05/19 12:12:01;;;;;;;;;;;33.90;55.70;;;;;;5066554;28;19944;-74
2022/05/19 12:14:27;;;;;;;;;;;34.00;53.70;;;;;;5070358;28;19913;-74
2022/05/19 12:16:59;;;;;;;;;;;33.80;54.20;;;;;;5066322;28;20361;-73
2022/05/19 12:19:32;;;;;;;;;;;33.00;55.20;;;;;;5064896;28;19917;-73
2022/05/19 12:21:58;;;;;;;;;;;33.20;56.50;;;;;;5052585;28;20290;-73
2022/05/19 12:24:31;;;;;;;;;;;34.10;51.10;;;;;;5052930;28;20020;-73
2022/05/19 12:26:59;;;;;;;;;;;34.80;53.00;;;;;;5053112;28;19917;-73
2022/05/19 12:29:29;;;;;;;;;;;36.20;52.30;;;;;;5057996;28;20353;-73
2022/05/19 12:31:59;;;;;;;;;;;36.20;53.10;;;;;;5060644;28;19909;-73
2022/05/19 12:34:29;;;;;;;;;;;36.50;49.20;;;;;;5052853;28;19908;-73
2022/05/19 12:37:13;;;;;;;;;;;37.40;49.40;;;;;;5066232;28;20357;-73
2022/05/19 12:39:46;;;;;;;;;;;36.80;47.90;;;;;;5071617;28;19954;-73
2022/05/19 12:42:13;;;;;;;;;;;37.60;49.50;;;;;;5066192;28;20277;-73
2022/05/19 12:44:50;;;;;;;;;;;35.70;48.10;;;;;;5061538;28;19922;-73
2022/05/19 12:47:16;;;;;;;;;;;34.10;48.50;;;;;;5072695;28;19908;-73
2022/05/19 12:50:00;;;;;;;;;;;36.20;51.90;;;;;;5072823;28;19939;-73
2022/05/19 12:52:45;;;;;;;;;;;36.50;46.50;;;;;;5053055;28;19916;-73
2022/05/19 12:55:26;;;;;;;;;;;36.10;51.10;;;;;;5048486;28;20357;-74
2022/05/19 12:57:55;;;;;;;;;;;35.30;47.90;;;;;;5055275;28;19913;-73
2022/05/19 13:00:21;;;;;;;;;;;35.50;48.00;;;;;;5051131;28;20403;-73
2022/05/19 13:02:50;;;;;;;;;;;36.20;46.50;;;;;;5070544;28;19912;-73
2022/05/19 13:05:18;;;;;;;;;;;36.70;46.30;;;;;;5068594;28;20320;-73
2022/05/19 13:07:45;;;;;;;;;;;37.40;46.20;;;;;;5052749;28;19908;-73
2022/05/19 13:10:13;;;;;;;;;;;36.70;46.40;;;;;;5052319;28;19991;-73
2022/05/19 13:12:45;;;;;;;;;;;36.30;48.90;;;;;;5052059;28;19913;-73
2022/05/19 13:15:11;;;;;;;;;;;36.20;46.50;;;;;;5055849;28;19909;-72
2022/05/19 13:17:43;;;;;;;;;;;35.70;46.70;;;;;;5069804;28;20010;-72
2022/05/19 13:20:13;;;;;;;;;;;35.70;48.30;;;;;;5043352;28;20378;-72
2022/05/19 13:22:39;;;;;;;;;;;36.10;46.00;;;;;;5069117;28;19962;-73
2022/05/19 13:25:05;;;;;;;;;;;36.00;47.90;;;;;;5066989;28;20384;-73
2022/05/19 13:30:22;;;;;;;;;;;35.50;46.70;;;;;;5032205;28;19924;-73
2022/05/19 13:32:48;;;;;;;;;;;35.50;48.20;;;;;;5047635;28;19920;-73
2022/05/19 13:35:16;;;;;;;;;;;35.00;45.60;;;;;;5064997;28;19912;-73
2022/05/19 13:37:43;;;;;;;;;;;35.20;46.10;;;;;;5072250;28;19916;-73
2022/05/19 13:40:11;;;;;;;;;;;36.00;51.60;;;;;;5065876;28;20277;-73
2022/05/19 13:42:37;;;;;;;;;;;37.50;46.20;;;;;;5064236;28;20316;-73
2022/05/19 13:45:03;;;;;;;;;;;37.50;46.80;;;;;;5066987;28;20334;-74
2022/05/19 13:47:29;;;;;;;;;;;37.00;48.20;;;;;;5066443;28;19909;-74
2022/05/19 13:49:59;;;;;;;;;;;37.20;46.80;;;;;;5072332;28;19970;-73
2022/05/19 13:52:28;;;;;;;;;;;38.00;47.10;;;;;;5060490;28;19955;-74
2022/05/19 13:54:54;;;;;;;;;;;37.60;47.30;;;;;;5073076;28;20011;-73
2022/05/19 13:57:19;;;;;;;;;;;36.20;48.00;;;;;;5065759;28;20360;-74
2022/05/19 13:59:47;;;;;;;;;;;36.10;47.10;;;;;;5057590;28;19927;-75
2022/05/19 14:02:17;;;;;;;;;;;37.30;45.10;;;;;;5051919;28;19916;-74
2022/05/19 14:04:43;;;;;;;;;;;37.70;45.20;;;;;;5062089;28;19912;-74
2022/05/19 14:07:10;;;;;;;;;;;37.50;46.30;;;;;;5068321;28;19931;-74
2022/05/19 14:09:48;;;;;;;;;;;36.60;44.60;;;;;;5059904;28;19916;-74
2022/05/19 14:12:13;;;;;;;;;;;36.70;44.70;;;;;;5068851;28;20308;-74
2022/05/19 14:14:46;;;;;;;;;;;37.20;44.60;;;;;;5058166;28;19995;-74
2022/05/19 14:17:12;;;;;;;;;;;35.70;47.90;;;;;;5057076;28;19913;-74
2022/05/19 14:19:39;;;;;;;;;;;34.50;49.30;;;;;;5064988;28;19920;-74
2022/05/19 14:22:05;;;;;;;;;;;33.90;52.70;;;;;;5060247;28;19909;-74
2022/05/19 14:24:30;;;;;;;;;;;33.60;50.60;;;;;;5059088;28;19916;-74
2022/05/19 14:26:59;;;;;;;;;;;33.50;50.80;;;;;;5061041;28;20674;-74
2022/05/19 14:29:29;;;;;;;;;;;32.80;53.10;;;;;;5062815;28;20535;-74
2022/05/19 14:31:58;;;;;;;;;;;32.20;53.60;;;;;;5057131;28;19908;-74
2022/05/19 14:34:53;;;;;;;;;;;33.00;53.60;;;;;;5073331;28;19915;-74
2022/05/19 14:37:26;;;;;;;;;;;32.90;53.60;;;;;;5076096;28;19909;-74
2022/05/19 14:43:03;;;;;;;;;;;33.70;53.80;;;;;;5075011;28;20445;-74
2022/05/19 14:45:25;;;;;;;;;;;36.10;48.30;;;;;;5071893;28;19962;-74
2022/05/19 14:47:52;;;;;;;;;;;36.10;47.40;;;;;;5070941;28;19912;-74
2022/05/19 14:50:23;;;;;;;;;;;35.10;47.90;;;;;;5062808;28;20308;-74
2022/05/19 14:52:57;;;;;;;;;;;34.40;51.10;;;;;;5061616;28;19909;-74